sensor_id;sensor_type;location;lat;lon;timestamp;P1;durP1;ratioP1;P2;durP2;ratioP2
35488;SDS011;21602;55.670;37.578;2023-04-16T00:00:31;7.70;;;3.83;;
35488;SDS011;21602;55.670;37.578;2023-04-16T00:02:57;12.13;;;4.00;;
35488;SDS011;21602;55.670;37.578;2023-04-16T00:05:23;10.15;;;4.85;;
35488;SDS011;21602;55.670;37.578;2023-04-16T00:07:49;10.60;;;4.28;;
35488;SDS011;21602;55.670;37.578;2023-04-16T00:10:16;11.30;;;4.53;;
35488;SDS011;21602;55.670;37.578;2023-04-16T00:12:42;14.82;;;4.32;;
35488;SDS011;21602;55.670;37.578;2023-04-16T00:15:07;8.48;;;4.20;;
35488;SDS011;21602;55.670;37.578;2023-04-16T00:17:33;9.95;;;4.43;;
35488;SDS011;21602;55.670;37.578;2023-04-16T00:20:00;9.30;;;3.85;;
35488;SDS011;21602;55.670;37.578;2023-04-16T00:22:29;10.70;;;4.10;;
35488;SDS011;21602;55.670;37.578;2023-04-16T00:24:55;9.38;;;4.13;;
35488;SDS011;21602;55.670;37.578;2023-04-16T00:27:21;13.40;;;4.22;;
35488;SDS011;21602;55.670;37.578;2023-04-16T00:29:47;8.82;;;4.43;;
35488;SDS011;21602;55.670;37.578;2023-04-16T00:32:13;8.55;;;4.32;;
35488;SDS011;21602;55.670;37.578;2023-04-16T00:34:39;7.38;;;4.32;;
35488;SDS011;21602;55.670;37.578;2023-04-16T00:37:05;7.75;;;3.80;;
35488;SDS011;21602;55.670;37.578;2023-04-16T00:39:31;11.82;;;3.92;;
35488;SDS011;21602;55.670;37.578;2023-04-16T00:41:58;8.90;;;4.43;;
35488;SDS011;21602;55.670;37.578;2023-04-16T00:44:24;11.73;;;4.03;;
35488;SDS011;21602;55.670;37.578;2023-04-16T00:46:51;8.88;;;4.07;;
35488;SDS011;21602;55.670;37.578;2023-04-16T00:49:18;12.43;;;4.10;;
35488;SDS011;21602;55.670;37.578;2023-04-16T00:51:45;8.10;;;4.43;;
35488;SDS011;21602;55.670;37.578;2023-04-16T00:54:11;8.30;;;4.38;;
35488;SDS011;21602;55.670;37.578;2023-04-16T00:56:37;7.32;;;3.38;;
35488;SDS011;21602;55.670;37.578;2023-04-16T00:59:04;15.80;;;4.03;;
35488;SDS011;21602;55.670;37.578;2023-04-16T01:01:30;10.55;;;3.90;;
35488;SDS011;21602;55.670;37.578;2023-04-16T01:03:56;8.63;;;3.75;;
35488;SDS011;21602;55.670;37.578;2023-04-16T01:06:22;10.90;;;4.05;;
35488;SDS011;21602;55.670;37.578;2023-04-16T01:08:48;10.88;;;3.38;;
35488;SDS011;21602;55.670;37.578;2023-04-16T01:11:14;8.32;;;4.13;;
35488;SDS011;21602;55.670;37.578;2023-04-16T01:13:40;7.30;;;3.88;;
35488;SDS011;21602;55.670;37.578;2023-04-16T01:16:07;8.25;;;3.90;;
35488;SDS011;21602;55.670;37.578;2023-04-16T01:18:34;10.73;;;3.67;;
35488;SDS011;21602;55.670;37.578;2023-04-16T01:21:01;9.13;;;3.95;;
35488;SDS011;21602;55.670;37.578;2023-04-16T01:23:28;7.65;;;3.50;;
35488;SDS011;21602;55.670;37.578;2023-04-16T01:25:54;10.95;;;3.28;;
35488;SDS011;21602;55.670;37.578;2023-04-16T01:28:21;5.97;;;3.58;;
35488;SDS011;21602;55.670;37.578;2023-04-16T01:30:47;6.55;;;3.78;;
35488;SDS011;21602;55.670;37.578;2023-04-16T01:33:38;6.47;;;3.50;;
35488;SDS011;21602;55.670;37.578;2023-04-16T01:36:05;8.68;;;3.60;;
35488;SDS011;21602;55.670;37.578;2023-04-16T01:38:31;7.25;;;3.25;;
35488;SDS011;21602;55.670;37.578;2023-04-16T01:40:57;8.80;;;3.10;;
35488;SDS011;21602;55.670;37.578;2023-04-16T01:43:24;10.40;;;3.78;;
35488;SDS011;21602;55.670;37.578;2023-04-16T01:45:51;5.85;;;3.38;;
35488;SDS011;21602;55.670;37.578;2023-04-16T01:48:18;5.45;;;2.88;;
35488;SDS011;21602;55.670;37.578;2023-04-16T01:50:44;5.28;;;3.22;;
35488;SDS011;21602;55.670;37.578;2023-04-16T01:53:10;9.30;;;3.83;;
35488;SDS011;21602;55.670;37.578;2023-04-16T01:55:36;8.38;;;3.78;;
35488;SDS011;21602;55.670;37.578;2023-04-16T01:58:02;9.38;;;3.90;;
35488;SDS011;21602;55.670;37.578;2023-04-16T02:00:32;8.38;;;4.20;;
35488;SDS011;21602;55.670;37.578;2023-04-16T02:02:58;8.45;;;4.43;;
35488;SDS011;21602;55.670;37.578;2023-04-16T02:05:26;9.52;;;4.07;;
35488;SDS011;21602;55.670;37.578;2023-04-16T02:07:52;10.25;;;4.05;;
35488;SDS011;21602;55.670;37.578;2023-04-16T02:10:18;12.85;;;4.68;;
35488;SDS011;21602;55.670;37.578;2023-04-16T02:12:46;10.30;;;4.63;;
35488;SDS011;21602;55.670;37.578;2023-04-16T02:15:14;12.43;;;3.83;;
35488;SDS011;21602;55.670;37.578;2023-04-16T02:17:41;10.98;;;4.18;;
35488;SDS011;21602;55.670;37.578;2023-04-16T02:20:09;13.73;;;4.60;;
35488;SDS011;21602;55.670;37.578;2023-04-16T02:22:46;7.57;;;4.10;;
35488;SDS011;21602;55.670;37.578;2023-04-16T02:25:16;9.32;;;4.75;;
35488;SDS011;21602;55.670;37.578;2023-04-16T02:27:42;8.85;;;4.82;;
35488;SDS011;21602;55.670;37.578;2023-04-16T02:30:22;6.05;;;3.38;;
35488;SDS011;21602;55.670;37.578;2023-04-16T02:32:48;9.23;;;4.30;;
35488;SDS011;21602;55.670;37.578;2023-04-16T02:35:15;11.10;;;3.95;;
35488;SDS011;21602;55.670;37.578;2023-04-16T02:37:41;10.43;;;3.83;;
35488;SDS011;21602;55.670;37.578;2023-04-16T02:40:07;9.05;;;4.38;;
35488;SDS011;21602;55.670;37.578;2023-04-16T02:42:33;10.20;;;4.28;;
35488;SDS011;21602;55.670;37.578;2023-04-16T02:45:00;9.85;;;4.15;;
35488;SDS011;21602;55.670;37.578;2023-04-16T02:47:30;6.22;;;3.25;;
35488;SDS011;21602;55.670;37.578;2023-04-16T02:49:56;8.75;;;4.47;;
35488;SDS011;21602;55.670;37.578;2023-04-16T02:52:22;6.63;;;3.65;;
35488;SDS011;21602;55.670;37.578;2023-04-16T02:54:48;8.90;;;3.85;;
35488;SDS011;21602;55.670;37.578;2023-04-16T02:57:14;8.38;;;3.38;;
35488;SDS011;21602;55.670;37.578;2023-04-16T02:59:40;8.35;;;3.33;;
35488;SDS011;21602;55.670;37.578;2023-04-16T03:02:06;7.18;;;4.00;;
35488;SDS011;21602;55.670;37.578;2023-04-16T03:04:32;10.00;;;3.60;;
35488;SDS011;21602;55.670;37.578;2023-04-16T03:06:58;7.60;;;3.72;;
35488;SDS011;21602;55.670;37.578;2023-04-16T03:09:24;8.10;;;3.67;;
35488;SDS011;21602;55.670;37.578;2023-04-16T03:11:50;13.88;;;4.10;;
35488;SDS011;21602;55.670;37.578;2023-04-16T03:14:16;7.38;;;3.60;;
35488;SDS011;21602;55.670;37.578;2023-04-16T03:16:42;9.60;;;3.83;;
35488;SDS011;21602;55.670;37.578;2023-04-16T03:19:08;12.38;;;3.78;;
35488;SDS011;21602;55.670;37.578;2023-04-16T03:21:35;6.60;;;3.40;;
35488;SDS011;21602;55.670;37.578;2023-04-16T03:24:01;15.75;;;3.78;;
35488;SDS011;21602;55.670;37.578;2023-04-16T03:26:27;9.13;;;3.90;;
35488;SDS011;21602;55.670;37.578;2023-04-16T03:28:54;10.13;;;3.60;;
35488;SDS011;21602;55.670;37.578;2023-04-16T03:31:22;6.97;;;3.63;;
35488;SDS011;21602;55.670;37.578;2023-04-16T03:36:16;7.47;;;3.17;;
35488;SDS011;21602;55.670;37.578;2023-04-16T03:38:42;10.82;;;4.45;;
35488;SDS011;21602;55.670;37.578;2023-04-16T03:41:09;9.05;;;3.42;;
35488;SDS011;21602;55.670;37.578;2023-04-16T03:43:36;5.55;;;3.03;;
35488;SDS011;21602;55.670;37.578;2023-04-16T03:46:01;7.70;;;4.07;;
35488;SDS011;21602;55.670;37.578;2023-04-16T03:48:27;11.20;;;3.78;;
35488;SDS011;21602;55.670;37.578;2023-04-16T03:50:53;7.95;;;3.50;;
35488;SDS011;21602;55.670;37.578;2023-04-16T03:53:19;9.60;;;3.90;;
35488;SDS011;21602;55.670;37.578;2023-04-16T03:55:50;9.40;;;4.55;;
35488;SDS011;21602;55.670;37.578;2023-04-16T03:58:17;17.35;;;3.40;;
35488;SDS011;21602;55.670;37.578;2023-04-16T04:00:45;13.32;;;4.10;;
35488;SDS011;21602;55.670;37.578;2023-04-16T04:03:13;9.13;;;3.88;;
35488;SDS011;21602;55.670;37.578;2023-04-16T04:05:44;6.72;;;3.20;;
35488;SDS011;21602;55.670;37.578;2023-04-16T04:08:13;11.18;;;3.75;;
35488;SDS011;21602;55.670;37.578;2023-04-16T04:10:40;8.77;;;3.63;;
35488;SDS011;21602;55.670;37.578;2023-04-16T04:13:07;6.70;;;3.45;;
35488;SDS011;21602;55.670;37.578;2023-04-16T04:15:33;7.78;;;3.83;;
35488;SDS011;21602;55.670;37.578;2023-04-16T04:17:59;9.43;;;3.50;;
35488;SDS011;21602;55.670;37.578;2023-04-16T04:20:25;9.07;;;3.92;;
35488;SDS011;21602;55.670;37.578;2023-04-16T04:22:52;16.15;;;4.25;;
35488;SDS011;21602;55.670;37.578;2023-04-16T04:25:21;10.18;;;3.58;;
35488;SDS011;21602;55.670;37.578;2023-04-16T04:27:47;12.25;;;4.32;;
35488;SDS011;21602;55.670;37.578;2023-04-16T04:30:14;8.98;;;4.05;;
35488;SDS011;21602;55.670;37.578;2023-04-16T04:32:40;11.20;;;4.20;;
35488;SDS011;21602;55.670;37.578;2023-04-16T04:35:07;15.80;;;4.28;;
35488;SDS011;21602;55.670;37.578;2023-04-16T04:37:37;7.50;;;3.70;;
35488;SDS011;21602;55.670;37.578;2023-04-16T04:40:11;8.43;;;3.85;;
35488;SDS011;21602;55.670;37.578;2023-04-16T04:42:38;12.00;;;4.00;;
35488;SDS011;21602;55.670;37.578;2023-04-16T04:45:04;13.63;;;4.13;;
35488;SDS011;21602;55.670;37.578;2023-04-16T04:47:33;7.80;;;3.20;;
35488;SDS011;21602;55.670;37.578;2023-04-16T04:49:59;9.90;;;3.67;;
35488;SDS011;21602;55.670;37.578;2023-04-16T04:52:29;9.40;;;4.32;;
35488;SDS011;21602;55.670;37.578;2023-04-16T04:54:55;9.73;;;4.22;;
35488;SDS011;21602;55.670;37.578;2023-04-16T04:57:21;9.80;;;3.58;;
35488;SDS011;21602;55.670;37.578;2023-04-16T04:59:50;10.25;;;3.97;;
35488;SDS011;21602;55.670;37.578;2023-04-16T05:02:16;13.07;;;4.05;;
35488;SDS011;21602;55.670;37.578;2023-04-16T05:04:42;10.77;;;5.03;;
35488;SDS011;21602;55.670;37.578;2023-04-16T05:07:08;10.15;;;3.75;;
35488;SDS011;21602;55.670;37.578;2023-04-16T05:09:34;9.95;;;3.72;;
35488;SDS011;21602;55.670;37.578;2023-04-16T05:12:01;6.68;;;3.38;;
35488;SDS011;21602;55.670;37.578;2023-04-16T05:14:27;12.38;;;4.90;;
35488;SDS011;21602;55.670;37.578;2023-04-16T05:16:52;8.45;;;4.47;;
35488;SDS011;21602;55.670;37.578;2023-04-16T05:19:18;10.07;;;3.90;;
35488;SDS011;21602;55.670;37.578;2023-04-16T05:21:44;9.85;;;4.05;;
35488;SDS011;21602;55.670;37.578;2023-04-16T05:24:10;13.02;;;3.67;;
35488;SDS011;21602;55.670;37.578;2023-04-16T05:26:36;9.68;;;4.20;;
35488;SDS011;21602;55.670;37.578;2023-04-16T05:29:02;10.32;;;3.97;;
35488;SDS011;21602;55.670;37.578;2023-04-16T05:31:28;7.53;;;3.35;;
35488;SDS011;21602;55.670;37.578;2023-04-16T05:33:54;12.00;;;3.75;;
35488;SDS011;21602;55.670;37.578;2023-04-16T05:36:20;13.80;;;4.30;;
35488;SDS011;21602;55.670;37.578;2023-04-16T05:38:46;9.43;;;3.25;;
35488;SDS011;21602;55.670;37.578;2023-04-16T05:41:11;13.05;;;3.80;;
35488;SDS011;21602;55.670;37.578;2023-04-16T05:43:37;11.20;;;3.78;;
35488;SDS011;21602;55.670;37.578;2023-04-16T05:46:03;7.05;;;4.20;;
35488;SDS011;21602;55.670;37.578;2023-04-16T05:48:29;15.45;;;4.05;;
35488;SDS011;21602;55.670;37.578;2023-04-16T05:50:56;11.15;;;3.90;;
35488;SDS011;21602;55.670;37.578;2023-04-16T05:53:22;11.50;;;3.60;;
35488;SDS011;21602;55.670;37.578;2023-04-16T05:55:49;7.05;;;3.28;;
35488;SDS011;21602;55.670;37.578;2023-04-16T05:58:15;11.10;;;3.22;;
35488;SDS011;21602;55.670;37.578;2023-04-16T06:00:41;10.60;;;4.25;;
35488;SDS011;21602;55.670;37.578;2023-04-16T06:03:07;11.02;;;3.40;;
35488;SDS011;21602;55.670;37.578;2023-04-16T06:05:33;7.30;;;3.70;;
35488;SDS011;21602;55.670;37.578;2023-04-16T06:07:59;9.70;;;3.50;;
35488;SDS011;21602;55.670;37.578;2023-04-16T06:10:25;6.28;;;3.65;;
35488;SDS011;21602;55.670;37.578;2023-04-16T06:12:51;8.48;;;3.42;;
35488;SDS011;21602;55.670;37.578;2023-04-16T06:15:18;12.43;;;3.40;;
35488;SDS011;21602;55.670;37.578;2023-04-16T06:17:43;8.70;;;3.45;;
35488;SDS011;21602;55.670;37.578;2023-04-16T06:20:10;7.95;;;3.30;;
35488;SDS011;21602;55.670;37.578;2023-04-16T06:22:36;14.00;;;3.90;;
35488;SDS011;21602;55.670;37.578;2023-04-16T06:25:02;8.38;;;3.35;;
35488;SDS011;21602;55.670;37.578;2023-04-16T06:27:29;11.40;;;2.90;;
35488;SDS011;21602;55.670;37.578;2023-04-16T06:29:56;9.63;;;3.38;;
35488;SDS011;21602;55.670;37.578;2023-04-16T06:32:22;11.77;;;3.00;;
35488;SDS011;21602;55.670;37.578;2023-04-16T06:34:48;8.20;;;3.15;;
35488;SDS011;21602;55.670;37.578;2023-04-16T06:37:14;12.93;;;3.67;;
35488;SDS011;21602;55.670;37.578;2023-04-16T06:39:40;9.43;;;3.50;;
35488;SDS011;21602;55.670;37.578;2023-04-16T06:42:06;10.57;;;3.08;;
35488;SDS011;21602;55.670;37.578;2023-04-16T06:44:32;16.73;;;3.47;;
35488;SDS011;21602;55.670;37.578;2023-04-16T06:47:00;8.30;;;3.38;;
35488;SDS011;21602;55.670;37.578;2023-04-16T06:49:26;8.23;;;3.40;;
35488;SDS011;21602;55.670;37.578;2023-04-16T06:51:52;8.90;;;2.88;;
35488;SDS011;21602;55.670;37.578;2023-04-16T06:54:18;7.97;;;2.88;;
35488;SDS011;21602;55.670;37.578;2023-04-16T06:56:44;8.98;;;3.97;;
35488;SDS011;21602;55.670;37.578;2023-04-16T06:59:10;13.20;;;3.08;;
35488;SDS011;21602;55.670;37.578;2023-04-16T07:01:36;10.55;;;4.30;;
35488;SDS011;21602;55.670;37.578;2023-04-16T07:04:02;5.45;;;3.08;;
35488;SDS011;21602;55.670;37.578;2023-04-16T07:06:28;6.47;;;3.53;;
35488;SDS011;21602;55.670;37.578;2023-04-16T07:08:54;7.43;;;3.95;;
35488;SDS011;21602;55.670;37.578;2023-04-16T07:11:20;6.47;;;2.83;;
35488;SDS011;21602;55.670;37.578;2023-04-16T07:13:46;9.07;;;3.08;;
35488;SDS011;21602;55.670;37.578;2023-04-16T07:16:12;10.25;;;3.90;;
35488;SDS011;21602;55.670;37.578;2023-04-16T07:18:38;6.38;;;3.25;;
35488;SDS011;21602;55.670;37.578;2023-04-16T07:21:04;5.18;;;2.80;;
35488;SDS011;21602;55.670;37.578;2023-04-16T07:23:30;6.88;;;2.70;;
35488;SDS011;21602;55.670;37.578;2023-04-16T07:25:56;8.02;;;2.75;;
35488;SDS011;21602;55.670;37.578;2023-04-16T07:28:22;5.90;;;2.38;;
35488;SDS011;21602;55.670;37.578;2023-04-16T07:30:49;4.38;;;2.47;;
35488;SDS011;21602;55.670;37.578;2023-04-16T07:33:15;7.15;;;2.83;;
35488;SDS011;21602;55.670;37.578;2023-04-16T07:35:41;5.82;;;2.28;;
35488;SDS011;21602;55.670;37.578;2023-04-16T07:38:09;8.10;;;2.53;;
35488;SDS011;21602;55.670;37.578;2023-04-16T07:40:35;7.93;;;2.22;;
35488;SDS011;21602;55.670;37.578;2023-04-16T07:43:02;8.02;;;3.08;;
35488;SDS011;21602;55.670;37.578;2023-04-16T07:45:28;7.03;;;2.72;;
35488;SDS011;21602;55.670;37.578;2023-04-16T07:47:54;9.82;;;2.80;;
35488;SDS011;21602;55.670;37.578;2023-04-16T07:50:21;5.25;;;2.20;;
35488;SDS011;21602;55.670;37.578;2023-04-16T07:52:48;8.93;;;2.53;;
35488;SDS011;21602;55.670;37.578;2023-04-16T07:55:14;10.43;;;2.50;;
35488;SDS011;21602;55.670;37.578;2023-04-16T07:57:40;8.90;;;2.13;;
35488;SDS011;21602;55.670;37.578;2023-04-16T08:00:06;4.15;;;2.00;;
35488;SDS011;21602;55.670;37.578;2023-04-16T08:02:40;5.05;;;2.58;;
35488;SDS011;21602;55.670;37.578;2023-04-16T08:05:06;6.15;;;2.22;;
35488;SDS011;21602;55.670;37.578;2023-04-16T08:07:32;3.15;;;2.05;;
35488;SDS011;21602;55.670;37.578;2023-04-16T08:09:59;6.60;;;2.33;;
35488;SDS011;21602;55.670;37.578;2023-04-16T08:12:31;6.07;;;1.75;;
35488;SDS011;21602;55.670;37.578;2023-04-16T08:15:08;9.05;;;2.60;;
35488;SDS011;21602;55.670;37.578;2023-04-16T08:17:34;8.75;;;2.13;;
35488;SDS011;21602;55.670;37.578;2023-04-16T08:20:01;4.50;;;2.15;;
35488;SDS011;21602;55.670;37.578;2023-04-16T08:22:30;11.60;;;2.28;;
35488;SDS011;21602;55.670;37.578;2023-04-16T08:24:57;7.35;;;2.10;;
35488;SDS011;21602;55.670;37.578;2023-04-16T08:27:26;7.15;;;2.10;;
35488;SDS011;21602;55.670;37.578;2023-04-16T08:29:52;3.67;;;2.10;;
35488;SDS011;21602;55.670;37.578;2023-04-16T08:32:17;5.15;;;1.95;;
35488;SDS011;21602;55.670;37.578;2023-04-16T08:34:43;6.78;;;2.05;;
35488;SDS011;21602;55.670;37.578;2023-04-16T08:37:09;3.38;;;2.05;;
35488;SDS011;21602;55.670;37.578;2023-04-16T08:39:35;9.65;;;2.10;;
35488;SDS011;21602;55.670;37.578;2023-04-16T08:42:04;11.55;;;2.17;;
35488;SDS011;21602;55.670;37.578;2023-04-16T08:46:58;11.57;;;3.38;;
35488;SDS011;21602;55.670;37.578;2023-04-16T08:49:26;3.15;;;2.17;;
35488;SDS011;21602;55.670;37.578;2023-04-16T08:51:53;4.75;;;2.00;;
35488;SDS011;21602;55.670;37.578;2023-04-16T08:54:27;4.63;;;2.28;;
35488;SDS011;21602;55.670;37.578;2023-04-16T08:57:00;7.30;;;2.63;;
35488;SDS011;21602;55.670;37.578;2023-04-16T08:59:30;8.63;;;2.08;;
35488;SDS011;21602;55.670;37.578;2023-04-16T09:01:57;7.40;;;2.50;;
35488;SDS011;21602;55.670;37.578;2023-04-16T09:04:27;7.85;;;2.45;;
35488;SDS011;21602;55.670;37.578;2023-04-16T09:06:57;7.38;;;2.00;;
35488;SDS011;21602;55.670;37.578;2023-04-16T09:09:26;6.68;;;2.33;;
35488;SDS011;21602;55.670;37.578;2023-04-16T09:11:53;7.55;;;2.20;;
35488;SDS011;21602;55.670;37.578;2023-04-16T09:14:20;8.02;;;2.60;;
35488;SDS011;21602;55.670;37.578;2023-04-16T09:16:46;6.10;;;2.25;;
35488;SDS011;21602;55.670;37.578;2023-04-16T09:19:14;5.75;;;2.78;;
35488;SDS011;21602;55.670;37.578;2023-04-16T09:21:41;6.30;;;2.22;;
35488;SDS011;21602;55.670;37.578;2023-04-16T09:24:10;3.22;;;1.98;;
35488;SDS011;21602;55.670;37.578;2023-04-16T09:26:36;7.70;;;2.60;;
35488;SDS011;21602;55.670;37.578;2023-04-16T09:29:03;4.68;;;2.13;;
35488;SDS011;21602;55.670;37.578;2023-04-16T09:31:29;5.90;;;3.08;;
35488;SDS011;21602;55.670;37.578;2023-04-16T09:34:01;6.05;;;2.92;;
35488;SDS011;21602;55.670;37.578;2023-04-16T09:36:29;6.30;;;2.35;;
35488;SDS011;21602;55.670;37.578;2023-04-16T09:38:57;5.15;;;2.70;;
35488;SDS011;21602;55.670;37.578;2023-04-16T09:41:25;6.03;;;2.00;;
35488;SDS011;21602;55.670;37.578;2023-04-16T09:43:59;4.82;;;2.13;;
35488;SDS011;21602;55.670;37.578;2023-04-16T09:46:33;5.43;;;2.28;;
35488;SDS011;21602;55.670;37.578;2023-04-16T09:49:07;6.78;;;2.60;;
35488;SDS011;21602;55.670;37.578;2023-04-16T09:51:39;5.00;;;2.42;;
35488;SDS011;21602;55.670;37.578;2023-04-16T09:54:06;7.95;;;2.65;;
35488;SDS011;21602;55.670;37.578;2023-04-16T09:56:32;4.28;;;2.78;;
35488;SDS011;21602;55.670;37.578;2023-04-16T09:59:05;4.38;;;3.03;;
35488;SDS011;21602;55.670;37.578;2023-04-16T10:01:32;4.70;;;2.22;;
35488;SDS011;21602;55.670;37.578;2023-04-16T10:03:58;13.35;;;2.90;;
35488;SDS011;21602;55.670;37.578;2023-04-16T10:06:24;6.18;;;2.88;;
35488;SDS011;21602;55.670;37.578;2023-04-16T10:08:53;6.55;;;2.75;;
35488;SDS011;21602;55.670;37.578;2023-04-16T10:11:25;6.32;;;2.20;;
35488;SDS011;21602;55.670;37.578;2023-04-16T10:13:51;4.88;;;2.50;;
35488;SDS011;21602;55.670;37.578;2023-04-16T10:16:17;4.30;;;2.53;;
35488;SDS011;21602;55.670;37.578;2023-04-16T10:18:43;5.47;;;2.40;;
35488;SDS011;21602;55.670;37.578;2023-04-16T10:21:13;5.43;;;2.67;;
35488;SDS011;21602;55.670;37.578;2023-04-16T10:23:41;4.40;;;2.67;;
35488;SDS011;21602;55.670;37.578;2023-04-16T10:26:08;4.38;;;3.08;;
35488;SDS011;21602;55.670;37.578;2023-04-16T10:28:34;5.35;;;2.47;;
35488;SDS011;21602;55.670;37.578;2023-04-16T10:31:02;4.93;;;2.50;;
35488;SDS011;21602;55.670;37.578;2023-04-16T10:33:30;4.78;;;2.30;;
35488;SDS011;21602;55.670;37.578;2023-04-16T10:36:08;4.78;;;2.28;;
35488;SDS011;21602;55.670;37.578;2023-04-16T10:39:00;4.70;;;2.33;;
35488;SDS011;21602;55.670;37.578;2023-04-16T10:41:25;6.00;;;2.20;;
35488;SDS011;21602;55.670;37.578;2023-04-16T10:43:52;5.63;;;2.47;;
35488;SDS011;21602;55.670;37.578;2023-04-16T10:46:30;7.95;;;2.35;;
35488;SDS011;21602;55.670;37.578;2023-04-16T10:49:13;7.15;;;2.20;;
35488;SDS011;21602;55.670;37.578;2023-04-16T10:51:51;17.77;;;3.05;;
35488;SDS011;21602;55.670;37.578;2023-04-16T10:54:22;4.43;;;2.75;;
35488;SDS011;21602;55.670;37.578;2023-04-16T10:56:53;4.30;;;2.33;;
35488;SDS011;21602;55.670;37.578;2023-04-16T10:59:22;2.85;;;2.20;;
35488;SDS011;21602;55.670;37.578;2023-04-16T11:01:52;5.60;;;3.03;;
35488;SDS011;21602;55.670;37.578;2023-04-16T11:12:40;5.80;;;3.60;;
35488;SDS011;21602;55.670;37.578;2023-04-16T11:15:16;11.13;;;3.72;;
35488;SDS011;21602;55.670;37.578;2023-04-16T11:17:49;5.13;;;2.70;;
35488;SDS011;21602;55.670;37.578;2023-04-16T11:20:23;4.03;;;2.10;;
35488;SDS011;21602;55.670;37.578;2023-04-16T11:22:52;6.15;;;2.17;;
35488;SDS011;21602;55.670;37.578;2023-04-16T11:25:25;6.43;;;2.22;;
35488;SDS011;21602;55.670;37.578;2023-04-16T11:27:52;9.10;;;2.53;;
35488;SDS011;21602;55.670;37.578;2023-04-16T11:30:37;8.95;;;3.13;;
35488;SDS011;21602;55.670;37.578;2023-04-16T11:33:08;3.42;;;1.92;;
35488;SDS011;21602;55.670;37.578;2023-04-16T11:35:41;14.50;;;2.80;;
35488;SDS011;21602;55.670;37.578;2023-04-16T11:38:20;4.22;;;2.33;;
35488;SDS011;21602;55.670;37.578;2023-04-16T11:40:57;5.47;;;2.80;;
35488;SDS011;21602;55.670;37.578;2023-04-16T11:43:23;5.18;;;2.28;;
35488;SDS011;21602;55.670;37.578;2023-04-16T11:45:55;6.03;;;2.13;;
35488;SDS011;21602;55.670;37.578;2023-04-16T11:48:25;6.20;;;2.15;;
35488;SDS011;21602;55.670;37.578;2023-04-16T11:51:11;3.33;;;2.10;;
35488;SDS011;21602;55.670;37.578;2023-04-16T11:53:44;4.13;;;2.35;;
35488;SDS011;21602;55.670;37.578;2023-04-16T11:56:30;5.65;;;2.50;;
35488;SDS011;21602;55.670;37.578;2023-04-16T11:59:17;5.07;;;2.58;;
35488;SDS011;21602;55.670;37.578;2023-04-16T12:01:46;8.05;;;2.53;;
35488;SDS011;21602;55.670;37.578;2023-04-16T12:04:14;6.82;;;3.53;;
35488;SDS011;21602;55.670;37.578;2023-04-16T12:07:03;6.88;;;2.67;;
35488;SDS011;21602;55.670;37.578;2023-04-16T12:09:33;4.50;;;2.50;;
35488;SDS011;21602;55.670;37.578;2023-04-16T12:12:01;4.28;;;2.30;;
35488;SDS011;21602;55.670;37.578;2023-04-16T12:14:27;7.63;;;2.65;;
35488;SDS011;21602;55.670;37.578;2023-04-16T12:16:54;9.00;;;2.63;;
35488;SDS011;21602;55.670;37.578;2023-04-16T12:19:20;5.15;;;2.58;;
35488;SDS011;21602;55.670;37.578;2023-04-16T12:21:47;6.07;;;2.70;;
35488;SDS011;21602;55.670;37.578;2023-04-16T12:24:16;4.72;;;2.67;;
35488;SDS011;21602;55.670;37.578;2023-04-16T12:26:51;6.80;;;3.08;;
35488;SDS011;21602;55.670;37.578;2023-04-16T12:29:27;6.90;;;2.60;;
35488;SDS011;21602;55.670;37.578;2023-04-16T12:31:53;3.65;;;2.60;;
35488;SDS011;21602;55.670;37.578;2023-04-16T12:34:19;5.72;;;2.30;;
35488;SDS011;21602;55.670;37.578;2023-04-16T12:36:46;5.18;;;2.25;;
35488;SDS011;21602;55.670;37.578;2023-04-16T12:39:14;4.47;;;2.45;;
35488;SDS011;21602;55.670;37.578;2023-04-16T12:41:41;6.35;;;2.30;;
35488;SDS011;21602;55.670;37.578;2023-04-16T12:44:09;4.97;;;2.20;;
35488;SDS011;21602;55.670;37.578;2023-04-16T12:46:37;6.95;;;3.03;;
35488;SDS011;21602;55.670;37.578;2023-04-16T12:49:04;8.68;;;3.17;;
35488;SDS011;21602;55.670;37.578;2023-04-16T12:51:30;8.82;;;2.55;;
35488;SDS011;21602;55.670;37.578;2023-04-16T12:53:56;10.82;;;3.55;;
35488;SDS011;21602;55.670;37.578;2023-04-16T12:56:22;7.25;;;2.85;;
35488;SDS011;21602;55.670;37.578;2023-04-16T12:58:48;6.03;;;3.28;;
35488;SDS011;21602;55.670;37.578;2023-04-16T13:01:19;3.77;;;2.60;;
35488;SDS011;21602;55.670;37.578;2023-04-16T13:03:45;5.28;;;2.92;;
35488;SDS011;21602;55.670;37.578;2023-04-16T13:06:12;4.97;;;3.17;;
35488;SDS011;21602;55.670;37.578;2023-04-16T13:08:40;6.78;;;3.25;;
35488;SDS011;21602;55.670;37.578;2023-04-16T13:11:08;10.25;;;2.97;;
35488;SDS011;21602;55.670;37.578;2023-04-16T13:13:35;5.90;;;2.47;;
35488;SDS011;21602;55.670;37.578;2023-04-16T13:16:01;5.60;;;3.22;;
35488;SDS011;21602;55.670;37.578;2023-04-16T13:18:33;8.63;;;2.88;;
35488;SDS011;21602;55.670;37.578;2023-04-16T13:21:00;5.00;;;2.95;;
35488;SDS011;21602;55.670;37.578;2023-04-16T13:23:26;4.90;;;2.92;;
35488;SDS011;21602;55.670;37.578;2023-04-16T13:25:53;10.35;;;2.85;;
35488;SDS011;21602;55.670;37.578;2023-04-16T13:28:18;7.22;;;2.85;;
35488;SDS011;21602;55.670;37.578;2023-04-16T13:30:44;5.28;;;2.28;;
35488;SDS011;21602;55.670;37.578;2023-04-16T13:33:11;3.40;;;2.58;;
35488;SDS011;21602;55.670;37.578;2023-04-16T13:35:37;3.67;;;2.25;;
35488;SDS011;21602;55.670;37.578;2023-04-16T13:38:03;5.97;;;2.35;;
35488;SDS011;21602;55.670;37.578;2023-04-16T13:40:29;5.22;;;2.70;;
35488;SDS011;21602;55.670;37.578;2023-04-16T13:42:56;7.43;;;2.17;;
35488;SDS011;21602;55.670;37.578;2023-04-16T13:45:22;3.80;;;2.35;;
35488;SDS011;21602;55.670;37.578;2023-04-16T13:47:48;4.22;;;2.30;;
35488;SDS011;21602;55.670;37.578;2023-04-16T13:50:14;5.88;;;2.05;;
35488;SDS011;21602;55.670;37.578;2023-04-16T13:52:40;5.47;;;2.70;;
35488;SDS011;21602;55.670;37.578;2023-04-16T13:55:06;7.82;;;2.72;;
35488;SDS011;21602;55.670;37.578;2023-04-16T13:57:34;4.40;;;2.25;;
35488;SDS011;21602;55.670;37.578;2023-04-16T14:00:00;5.43;;;2.78;;
35488;SDS011;21602;55.670;37.578;2023-04-16T14:02:29;5.15;;;2.60;;
35488;SDS011;21602;55.670;37.578;2023-04-16T14:05:09;5.70;;;1.90;;
35488;SDS011;21602;55.670;37.578;2023-04-16T14:07:35;6.28;;;2.53;;
35488;SDS011;21602;55.670;37.578;2023-04-16T14:10:02;3.67;;;2.30;;
35488;SDS011;21602;55.670;37.578;2023-04-16T14:12:28;10.45;;;2.40;;
35488;SDS011;21602;55.670;37.578;2023-04-16T14:14:55;5.65;;;2.65;;
35488;SDS011;21602;55.670;37.578;2023-04-16T14:17:21;6.43;;;2.38;;
35488;SDS011;21602;55.670;37.578;2023-04-16T14:19:47;4.82;;;2.40;;
35488;SDS011;21602;55.670;37.578;2023-04-16T14:22:13;3.60;;;2.05;;
35488;SDS011;21602;55.670;37.578;2023-04-16T14:27:08;6.68;;;2.40;;
35488;SDS011;21602;55.670;37.578;2023-04-16T14:29:34;5.95;;;2.42;;
35488;SDS011;21602;55.670;37.578;2023-04-16T14:32:01;5.13;;;2.35;;
35488;SDS011;21602;55.670;37.578;2023-04-16T14:34:27;6.38;;;3.00;;
35488;SDS011;21602;55.670;37.578;2023-04-16T14:36:53;12.18;;;6.72;;
35488;SDS011;21602;55.670;37.578;2023-04-16T14:39:19;5.57;;;2.95;;
35488;SDS011;21602;55.670;37.578;2023-04-16T14:41:46;7.28;;;3.58;;
35488;SDS011;21602;55.670;37.578;2023-04-16T14:44:12;3.78;;;2.55;;
35488;SDS011;21602;55.670;37.578;2023-04-16T14:46:38;4.25;;;2.78;;
35488;SDS011;21602;55.670;37.578;2023-04-16T14:49:05;6.90;;;2.90;;